createdAt,value
2023-06-14T00:02:19.910Z,14.37
2023-06-14T00:04:46.623Z,14.13
2023-06-14T00:07:15.218Z,13.88
2023-06-14T00:09:41.732Z,13.95
2023-06-14T00:12:09.766Z,13.77
2023-06-14T00:14:36.374Z,14.02
2023-06-14T00:17:03.718Z,14.01
2023-06-14T00:19:33.955Z,13.77
2023-06-14T00:22:00.525Z,13.39
2023-06-14T00:24:27.180Z,13.63
2023-06-14T00:26:53.747Z,13.30
2023-06-14T00:29:20.286Z,13.31
2023-06-14T00:31:46.806Z,13.19
2023-06-14T00:34:13.392Z,13.09
2023-06-14T00:36:39.832Z,13.14
2023-06-14T00:39:06.278Z,12.92
2023-06-14T00:41:32.737Z,12.91
2023-06-14T00:43:59.737Z,12.57
2023-06-14T00:46:26.459Z,12.72
2023-06-14T00:48:53.548Z,12.59
2023-06-14T00:51:20.056Z,12.43
2023-06-14T00:53:48.217Z,12.34
2023-06-14T00:56:15.849Z,12.32
2023-06-14T00:58:42.908Z,12.56
2023-06-14T01:01:09.574Z,12.17
2023-06-14T01:03:36.178Z,12.51
2023-06-14T01:06:27.984Z,12.20
2023-06-14T01:09:19.412Z,12.13
2023-06-14T01:12:08.388Z,12.11
2023-06-14T01:14:36.021Z,11.97
2023-06-14T01:17:03.543Z,12.01
2023-06-14T01:19:30.611Z,11.53
2023-06-14T01:21:57.322Z,12.09
2023-06-14T01:24:26.792Z,11.04
2023-06-14T01:27:01.164Z,11.03
2023-06-14T01:29:33.510Z,11.14
2023-06-14T15:14:01.555Z,24.65
2023-06-14T15:16:28.160Z,24.22
2023-06-14T15:18:54.604Z,23.89
2023-06-14T15:21:21.017Z,24.01
2023-06-14T15:23:47.514Z,23.86
2023-06-14T15:26:13.985Z,23.67
2023-06-14T15:28:40.468Z,23.85
2023-06-14T15:31:06.988Z,23.35
2023-06-14T15:33:34.310Z,23.78
2023-06-14T15:36:00.776Z,24.16
2023-06-14T15:38:27.224Z,24.32
2023-06-14T15:40:53.656Z,24.20
2023-06-14T15:43:21.669Z,24.51
2023-06-14T15:45:48.696Z,24.57
2023-06-14T15:48:15.176Z,24.29
2023-06-14T15:50:41.664Z,23.96
2023-06-14T15:53:08.163Z,24.10
2023-06-14T15:55:34.634Z,24.45
2023-06-14T15:58:01.120Z,24.78
2023-06-14T16:00:27.623Z,24.58
2023-06-14T16:02:54.154Z,24.80
2023-06-14T16:05:21.037Z,24.87
2023-06-14T16:07:48.883Z,24.82
2023-06-14T16:10:15.887Z,25.13
2023-06-14T16:12:42.760Z,25.56
2023-06-14T16:15:09.945Z,25.13
2023-06-14T16:17:36.608Z,25.56
2023-06-14T16:20:03.240Z,25.32
2023-06-14T16:22:29.774Z,25.19
2023-06-14T16:24:56.201Z,24.73
2023-06-14T16:27:22.656Z,24.31
2023-06-14T16:29:49.103Z,24.35
2023-06-14T16:32:15.880Z,23.92
2023-06-14T16:34:42.366Z,23.81
2023-06-14T16:37:13.001Z,22.86
2023-06-14T16:39:39.480Z,23.03
2023-06-14T16:42:06.512Z,23.14
2023-06-14T16:44:32.975Z,23.54
2023-06-14T16:47:01.464Z,23.33
2023-06-14T16:49:27.903Z,23.34
2023-06-14T16:51:55.084Z,22.82
2023-06-14T16:54:21.590Z,22.77
2023-06-14T16:56:49.476Z,22.31
2023-06-14T16:59:18.004Z,21.64
2023-06-14T17:01:44.569Z,22.79
2023-06-14T17:04:11.139Z,22.51
2023-06-14T17:06:37.846Z,23.29
2023-06-14T17:09:04.277Z,22.87
2023-06-14T17:11:30.722Z,23.48
2023-06-14T17:13:57.205Z,23.34
2023-06-14T17:16:23.701Z,23.30
2023-06-14T17:18:50.201Z,23.31
2023-06-14T17:21:16.983Z,23.35
2023-06-14T17:23:43.461Z,23.17
2023-06-14T17:26:09.925Z,22.70
2023-06-14T17:28:37.113Z,22.87
2023-06-14T17:31:04.078Z,23.13
2023-06-14T17:33:30.686Z,22.82
2023-06-14T17:35:57.105Z,22.23
2023-06-14T17:38:23.765Z,22.47
2023-06-14T17:40:51.534Z,22.85
2023-06-14T17:43:32.603Z,22.59
2023-06-14T17:45:59.605Z,22.43
2023-06-14T17:48:26.191Z,22.56
2023-06-14T17:50:52.797Z,22.33
2023-06-14T17:53:19.250Z,21.83
2023-06-14T17:55:46.349Z,22.16
2023-06-14T17:58:12.805Z,22.03
2023-06-14T18:00:39.231Z,21.94
2023-06-14T18:03:08.485Z,21.89
2023-06-14T18:05:37.115Z,22.06
2023-06-14T18:08:08.037Z,21.93
2023-06-14T18:10:34.760Z,21.48
2023-06-14T18:13:01.628Z,21.80
2023-06-14T18:15:28.262Z,20.97
2023-06-14T18:17:56.131Z,21.61
2023-06-14T18:20:23.456Z,21.38
2023-06-14T18:22:54.973Z,20.90
2023-06-14T18:25:24.946Z,21.20
2023-06-14T18:27:51.470Z,20.77
2023-06-14T18:30:18.376Z,21.11
2023-06-14T18:32:48.408Z,20.56
2023-06-14T18:35:16.335Z,20.38
2023-06-14T18:37:43.961Z,20.42
2023-06-14T18:40:11.094Z,21.07
2023-06-14T18:42:37.937Z,20.43
2023-06-14T18:45:06.233Z,20.81
2023-06-14T18:47:33.004Z,19.99
2023-06-14T18:49:59.546Z,19.95
2023-06-14T18:52:27.791Z,20.68
2023-06-14T18:54:54.771Z,20.12
2023-06-14T18:57:21.929Z,20.00
2023-06-14T18:59:48.487Z,20.07
2023-06-14T19:02:15.295Z,20.20
2023-06-14T19:04:42.093Z,20.12
2023-06-14T19:07:09.649Z,20.12
2023-06-14T19:09:36.373Z,19.71
2023-06-14T19:12:02.962Z,19.52
2023-06-14T19:14:29.523Z,19.60
2023-06-14T19:16:56.349Z,19.35
2023-06-14T19:19:23.016Z,19.58
2023-06-14T19:21:49.609Z,19.43
2023-06-14T19:24:16.822Z,19.18
2023-06-14T19:26:43.938Z,19.52
2023-06-14T19:29:10.553Z,19.35
2023-06-14T19:31:40.328Z,19.28
2023-06-14T19:34:08.926Z,19.10
2023-06-14T19:37:21.859Z,19.21
2023-06-14T19:43:16.880Z,18.87
2023-06-14T19:46:29.739Z,18.23
2023-06-14T19:48:56.342Z,18.06
2023-06-14T19:51:22.745Z,17.97
2023-06-14T19:53:49.366Z,17.73
2023-06-14T19:56:15.942Z,17.62
2023-06-14T19:58:42.955Z,17.64
2023-06-14T20:01:09.770Z,17.64
2023-06-14T20:03:36.712Z,17.90
2023-06-14T20:06:03.282Z,17.44
2023-06-14T20:08:31.879Z,17.36
2023-06-14T20:10:58.387Z,17.10
2023-06-14T20:13:25.055Z,16.72
2023-06-14T20:15:51.668Z,17.18
2023-06-14T20:18:18.139Z,16.72
2023-06-14T20:20:44.973Z,16.68
2023-06-14T20:23:11.720Z,17.05
2023-06-14T20:25:46.742Z,16.39
2023-06-14T20:28:14.201Z,16.62
2023-06-14T20:30:43.707Z,16.50
2023-06-14T20:33:10.330Z,16.43
2023-06-14T20:35:37.266Z,16.30
2023-06-14T20:38:20.383Z,16.27
2023-06-14T20:40:53.670Z,15.46
2023-06-14T20:43:22.680Z,15.87
2023-06-14T20:45:50.254Z,16.23
2023-06-14T20:48:59.007Z,15.36
